createdAt,value
2023-05-21T00:02:30.734Z,16.00
2023-05-21T00:08:34.600Z,16.00
2023-05-21T00:14:37.177Z,16.10
2023-05-21T00:20:39.356Z,16.00
2023-05-21T00:26:41.954Z,16.00
2023-05-21T00:32:44.338Z,16.00
2023-05-21T00:38:46.843Z,16.00
2023-05-21T00:44:49.239Z,16.00
2023-05-21T00:50:51.855Z,16.00
2023-05-21T00:56:54.163Z,15.90
2023-05-21T01:02:56.729Z,15.90
2023-05-21T01:08:59.477Z,15.80
2023-05-21T01:15:05.761Z,15.90
2023-05-21T01:21:08.287Z,15.90
2023-05-21T01:27:11.072Z,15.90
2023-05-21T01:33:18.836Z,15.90
2023-05-21T01:39:27.476Z,15.80
2023-05-21T01:45:32.632Z,15.80
2023-05-21T01:51:35.325Z,15.80
2023-05-21T01:57:37.830Z,15.80
2023-05-21T02:03:40.676Z,15.80
2023-05-21T02:09:43.079Z,15.90
2023-05-21T02:15:45.384Z,15.90
2023-05-21T02:21:48.430Z,15.90
2023-05-21T02:27:54.229Z,15.90
2023-05-21T02:33:56.851Z,15.90
2023-05-21T02:39:59.448Z,15.90
2023-05-21T02:46:02.502Z,15.90
2023-05-21T02:52:05.977Z,15.80
2023-05-21T02:58:08.411Z,15.90
2023-05-21T03:04:11.343Z,15.90
2023-05-21T03:10:13.752Z,15.90
2023-05-21T03:16:16.101Z,15.90
2023-05-21T03:22:20.659Z,16.00
2023-05-21T03:28:27.059Z,16.10
2023-05-21T03:34:29.542Z,16.20
2023-05-21T03:40:31.954Z,16.30
2023-05-21T03:46:34.684Z,16.50
2023-05-21T03:52:44.768Z,16.70
2023-05-21T03:58:47.800Z,16.80
2023-05-21T04:04:51.938Z,17.10
2023-05-21T04:10:54.692Z,17.40
2023-05-21T04:16:57.368Z,17.60
2023-05-21T04:22:59.724Z,17.80
2023-05-21T04:29:04.346Z,18.20
2023-05-21T04:35:07.307Z,18.60
2023-05-21T04:41:11.358Z,18.90
2023-05-21T04:47:15.174Z,19.20
2023-05-21T04:53:18.131Z,19.60
2023-05-21T04:59:21.518Z,20.10
2023-05-21T05:05:24.078Z,20.30
2023-05-21T05:11:26.963Z,20.50
2023-05-21T05:17:30.089Z,21.10
2023-05-21T05:23:34.167Z,21.40
2023-05-21T05:29:37.478Z,21.90
2023-05-21T05:35:39.980Z,22.40
2023-05-21T05:41:42.670Z,25.30
2023-05-21T05:47:45.881Z,27.80
2023-05-21T05:53:48.932Z,29.60
2023-05-21T05:59:51.463Z,30.40
2023-05-21T06:05:54.538Z,30.30
2023-05-21T06:11:58.007Z,30.80
2023-05-21T06:18:00.606Z,30.40
2023-05-21T06:24:03.016Z,30.10
2023-05-21T06:30:06.340Z,30.50
2023-05-21T06:36:09.423Z,31.80
2023-05-21T06:42:12.502Z,31.20
2023-05-21T06:48:22.047Z,31.50
2023-05-21T06:54:26.644Z,32.70
2023-05-21T07:00:29.959Z,32.90
2023-05-21T07:06:32.479Z,32.20
2023-05-21T07:12:35.093Z,32.40
2023-05-21T07:18:39.917Z,33.90
2023-05-21T07:24:42.462Z,32.80
2023-05-21T07:30:45.122Z,32.60
2023-05-21T07:36:55.288Z,33.00
2023-05-21T07:42:57.943Z,33.30
2023-05-21T07:49:04.388Z,33.80
2023-05-21T07:55:07.789Z,32.90
2023-05-21T08:01:13.125Z,32.60
2023-05-21T08:07:17.517Z,33.70
2023-05-21T08:13:20.577Z,32.40
2023-05-21T08:19:24.814Z,32.90
2023-05-21T08:25:28.172Z,33.70
2023-05-21T08:31:31.952Z,34.60
2023-05-21T08:37:34.770Z,32.70
2023-05-21T08:43:48.561Z,33.20
2023-05-21T08:49:54.865Z,33.10
2023-05-21T08:55:57.748Z,33.40
2023-05-21T09:02:13.908Z,34.30
2023-05-21T09:08:24.755Z,34.40
2023-05-21T09:14:35.995Z,34.30
2023-05-21T09:20:51.616Z,34.50
2023-05-21T09:26:53.835Z,33.90
2023-05-21T09:33:00.515Z,34.10
2023-05-21T09:39:03.797Z,33.60
2023-05-21T09:45:09.594Z,33.50
2023-05-21T09:51:14.659Z,32.80
2023-05-21T09:57:17.282Z,34.30
2023-05-21T10:03:23.779Z,33.80
2023-05-21T10:09:31.988Z,32.70
2023-05-21T10:15:44.388Z,32.70
2023-05-21T10:21:47.625Z,33.50
2023-05-21T10:27:49.899Z,33.00
2023-05-21T10:33:54.268Z,31.60
2023-05-21T10:39:57.376Z,31.50
2023-05-21T10:46:19.675Z,30.40
2023-05-21T10:52:40.899Z,29.80
2023-05-21T10:59:01.415Z,31.10
2023-05-21T11:05:05.143Z,30.90
2023-05-21T11:11:07.666Z,32.10
2023-05-21T11:17:17.055Z,31.10
2023-05-21T11:23:21.508Z,30.40
2023-05-21T11:29:33.872Z,29.80
2023-05-21T11:35:46.075Z,30.10
2023-05-21T11:41:52.912Z,30.30
2023-05-21T11:47:56.509Z,31.20
2023-05-21T11:53:59.565Z,30.70
2023-05-21T12:00:05.537Z,31.30
2023-05-21T12:06:15.042Z,30.30
2023-05-21T12:12:23.417Z,30.80
2023-05-21T12:18:27.076Z,29.70
2023-05-21T12:24:29.749Z,29.60
2023-05-21T12:30:32.289Z,29.70
2023-05-21T12:36:34.903Z,27.80
2023-05-21T12:42:37.776Z,29.20
2023-05-21T12:48:40.233Z,27.20
2023-05-21T12:54:47.340Z,26.30
2023-05-21T13:00:49.470Z,26.30
2023-05-21T13:06:51.757Z,27.00
2023-05-21T13:12:54.057Z,27.90
2023-05-21T13:18:56.507Z,28.00
2023-05-21T13:24:58.662Z,27.20
2023-05-21T13:31:00.922Z,26.70
2023-05-21T13:37:03.245Z,26.60
2023-05-21T13:43:05.901Z,26.70
2023-05-21T13:49:08.391Z,25.70
2023-05-21T13:55:11.116Z,24.60
2023-05-21T14:01:13.663Z,24.00
2023-05-21T14:07:16.093Z,24.00
2023-05-21T14:13:19.914Z,24.10
2023-05-21T14:19:23.078Z,24.20
2023-05-21T14:25:25.370Z,24.40
2023-05-21T14:31:27.744Z,24.50
2023-05-21T14:37:30.228Z,24.40
2023-05-21T14:43:32.532Z,24.30
2023-05-21T14:49:34.797Z,24.10
2023-05-21T14:55:38.793Z,24.20
2023-05-21T15:01:41.464Z,24.40
2023-05-21T15:07:43.612Z,24.10
2023-05-21T15:13:46.764Z,23.80
2023-05-21T15:19:49.013Z,23.30
2023-05-21T15:25:51.979Z,22.70
2023-05-21T15:31:54.159Z,22.20
2023-05-21T15:37:56.582Z,21.70
2023-05-21T15:43:58.658Z,21.30
2023-05-21T15:50:01.198Z,21.10
2023-05-21T15:56:03.670Z,21.00
2023-05-21T16:02:06.296Z,20.90
2023-05-21T16:08:10.928Z,20.80
2023-05-21T16:14:13.198Z,20.60
2023-05-21T16:20:16.630Z,20.50
2023-05-21T16:26:19.080Z,20.30
2023-05-21T16:32:21.832Z,20.20
2023-05-21T16:38:24.575Z,19.90
2023-05-21T16:44:27.150Z,19.70
2023-05-21T16:50:29.896Z,19.60
2023-05-21T16:56:32.318Z,19.50
2023-05-21T17:02:34.875Z,19.50
2023-05-21T17:08:37.565Z,19.40
2023-05-21T17:14:40.627Z,19.40
2023-05-21T17:20:44.350Z,19.30
2023-05-21T17:26:46.889Z,19.30
2023-05-21T17:32:50.764Z,19.30
2023-05-21T17:38:53.413Z,19.20
2023-05-21T17:44:56.077Z,19.10
2023-05-21T17:50:58.334Z,19.00
2023-05-21T17:57:00.747Z,19.00
2023-05-21T18:03:03.274Z,19.00
2023-05-21T18:09:08.289Z,19.00
2023-05-21T18:15:11.273Z,19.10
2023-05-21T18:21:13.755Z,19.00
2023-05-21T18:27:16.537Z,19.00
2023-05-21T18:33:19.125Z,18.70
2023-05-21T18:39:25.024Z,18.50
2023-05-21T18:45:27.582Z,18.50
2023-05-21T18:51:29.701Z,18.30
2023-05-21T18:57:34.169Z,18.30
2023-05-21T19:03:36.422Z,18.20
2023-05-21T19:09:38.904Z,18.20
2023-05-21T19:15:41.196Z,18.30
2023-05-21T19:21:43.785Z,18.30
2023-05-21T19:27:46.421Z,18.30
2023-05-21T19:33:49.420Z,18.40
2023-05-21T19:39:52.404Z,18.50
2023-05-21T19:45:55.221Z,18.60
2023-05-21T19:51:57.529Z,18.50
2023-05-21T19:57:59.772Z,18.00
2023-05-21T20:04:02.706Z,17.70
2023-05-21T20:10:05.614Z,17.50
2023-05-21T20:16:08.369Z,17.30
2023-05-21T20:22:10.949Z,17.10
2023-05-21T20:28:13.153Z,16.90
2023-05-21T20:34:18.055Z,16.70
2023-05-21T20:40:20.616Z,16.60
2023-05-21T20:46:23.201Z,16.50
2023-05-21T20:52:25.909Z,16.40
2023-05-21T20:58:31.866Z,16.40
2023-05-21T21:04:34.132Z,16.30
2023-05-21T21:10:37.290Z,16.30
2023-05-21T21:16:39.947Z,16.20
2023-05-21T21:22:42.288Z,16.20
2023-05-21T21:28:46.532Z,16.20
2023-05-21T21:34:49.526Z,16.30
2023-05-21T21:40:52.116Z,16.30
2023-05-21T21:46:54.547Z,16.30
2023-05-21T21:52:57.873Z,16.40
2023-05-21T21:59:00.177Z,16.40
2023-05-21T22:05:02.605Z,16.40
2023-05-21T22:11:05.026Z,16.40
2023-05-21T22:17:08.843Z,16.40
2023-05-21T22:23:11.162Z,16.40
2023-05-21T22:29:13.442Z,16.40
2023-05-21T22:35:15.903Z,16.40
2023-05-21T22:41:21.809Z,16.30
2023-05-21T22:47:24.734Z,16.20
2023-05-21T22:53:27.261Z,16.10
2023-05-21T22:59:30.003Z,16.10
2023-05-21T23:05:32.406Z,16.00
2023-05-21T23:11:34.768Z,16.00
2023-05-21T23:17:37.793Z,16.00
2023-05-21T23:23:40.572Z,16.00
2023-05-21T23:29:42.931Z,16.10
2023-05-21T23:35:45.290Z,16.20
2023-05-21T23:41:47.659Z,16.20
2023-05-21T23:47:50.120Z,16.20
2023-05-21T23:53:52.835Z,16.30
2023-05-21T23:59:55.290Z,16.30
